createdAt,value
2023-03-15T00:01:05.717Z,101320
2023-03-15T00:06:05.728Z,101330
2023-03-15T00:11:05.796Z,101330
2023-03-15T00:16:05.818Z,101340
2023-03-15T00:21:05.739Z,101350
2023-03-15T00:26:05.785Z,101360
2023-03-15T00:31:05.833Z,101370
2023-03-15T00:36:05.837Z,101360
2023-03-15T00:41:05.752Z,101360
2023-03-15T00:46:05.842Z,101360
2023-03-15T00:51:05.765Z,101370
2023-03-15T00:56:05.795Z,101370
2023-03-15T01:01:05.762Z,101390
2023-03-15T01:06:05.766Z,101390
2023-03-15T01:11:05.760Z,101380
2023-03-15T01:16:05.878Z,101380
2023-03-15T01:21:05.774Z,101390
2023-03-15T01:26:05.811Z,101390
2023-03-15T01:31:05.879Z,101400
2023-03-15T01:36:05.862Z,101400
2023-03-15T01:41:05.783Z,101410
2023-03-15T01:46:05.782Z,101420
2023-03-15T01:51:05.791Z,101420
2023-03-15T01:56:05.827Z,101420
2023-03-15T02:01:05.854Z,101430
2023-03-15T02:06:05.796Z,101430
2023-03-15T02:11:05.816Z,101430
2023-03-15T02:16:05.872Z,101450
2023-03-15T02:21:05.807Z,101450
2023-03-15T02:26:05.837Z,101450
2023-03-15T02:31:05.805Z,101460
2023-03-15T02:36:05.828Z,101470
2023-03-15T02:41:05.810Z,101480
2023-03-15T02:46:05.901Z,101480
2023-03-15T02:51:05.818Z,101480
2023-03-15T02:56:05.866Z,101480
2023-03-15T03:01:05.997Z,101500
2023-03-15T03:06:05.835Z,101510
2023-03-15T03:11:05.841Z,101520
2023-03-15T03:16:05.836Z,101530
2023-03-15T03:21:05.842Z,101540
2023-03-15T03:26:05.865Z,101550
2023-03-15T03:31:05.891Z,101560
2023-03-15T03:36:05.880Z,101570
2023-03-15T03:41:05.844Z,101580
2023-03-15T03:46:05.856Z,101590
2023-03-15T03:51:05.864Z,101600
2023-03-15T03:56:05.893Z,101620
2023-03-15T04:01:05.852Z,101630
2023-03-15T04:06:05.932Z,101630
2023-03-15T04:11:05.874Z,101620
2023-03-15T04:16:05.929Z,101630
2023-03-15T04:21:05.860Z,101640
2023-03-15T04:26:05.890Z,101650
2023-03-15T04:31:05.910Z,101650
2023-03-15T04:36:05.938Z,101660
2023-03-15T04:41:05.881Z,101680
2023-03-15T04:46:05.890Z,101680
2023-03-15T04:51:05.889Z,101680
2023-03-15T04:56:05.917Z,101680
2023-03-15T05:01:05.950Z,101680
2023-03-15T05:06:05.894Z,101690
2023-03-15T05:11:05.898Z,101700
2023-03-15T05:16:06.017Z,101710
2023-03-15T05:21:05.911Z,101720
2023-03-15T05:26:05.942Z,101720
2023-03-15T05:31:05.913Z,101730
2023-03-15T05:36:05.914Z,101760
2023-03-15T05:41:05.918Z,101790
2023-03-15T05:46:06.004Z,101790
2023-03-15T05:51:05.913Z,101810
2023-03-15T05:56:05.969Z,101800
2023-03-15T06:01:05.986Z,101800
2023-03-15T06:06:05.958Z,101800
2023-03-15T06:11:05.933Z,101810
2023-03-15T06:16:05.931Z,101810
2023-03-15T06:21:05.938Z,101830
2023-03-15T06:26:05.976Z,101830
2023-03-15T06:31:05.959Z,101830
2023-03-15T06:36:05.984Z,101830
2023-03-15T06:41:05.940Z,101840
2023-03-15T06:46:05.968Z,101850
2023-03-15T06:51:05.963Z,101860
2023-03-15T06:56:05.994Z,101860
2023-03-15T07:01:05.996Z,101860
2023-03-15T07:06:05.960Z,101870
2023-03-15T07:11:05.963Z,101880
2023-03-15T07:16:06.021Z,101880
2023-03-15T07:21:05.974Z,101890
2023-03-15T07:26:06.009Z,101890
2023-03-15T07:31:06.002Z,101900
2023-03-15T07:36:05.996Z,101910
2023-03-15T07:41:06.042Z,101920
2023-03-15T07:46:05.988Z,101940
2023-03-15T07:51:05.995Z,101940
2023-03-15T07:56:06.014Z,101960
2023-03-15T08:01:05.995Z,101960
2023-03-15T08:06:05.997Z,101960
2023-03-15T08:11:05.993Z,101970
2023-03-15T08:16:06.058Z,101980
2023-03-15T08:21:06.000Z,101990
2023-03-15T08:26:06.025Z,101990
2023-03-15T08:31:06.002Z,102000
2023-03-15T08:36:06.026Z,102000
2023-03-15T08:41:06.030Z,102010
2023-03-15T08:46:06.063Z,102010
2023-03-15T08:51:06.020Z,102010
2023-03-15T08:56:06.055Z,102020
2023-03-15T09:01:06.016Z,102020
2023-03-15T09:06:06.025Z,102020
2023-03-15T09:11:06.046Z,102040
2023-03-15T09:16:06.024Z,102040
2023-03-15T09:21:06.025Z,102040
2023-03-15T09:26:06.074Z,102030
2023-03-15T09:31:06.066Z,102040
2023-03-15T09:36:06.104Z,102040
2023-03-15T09:41:06.053Z,102040
2023-03-15T09:46:06.160Z,102040
2023-03-15T09:51:06.062Z,102040
2023-03-15T09:56:06.072Z,102040
2023-03-15T10:01:06.161Z,102050
2023-03-15T10:06:06.059Z,102050
2023-03-15T10:11:06.071Z,102050
2023-03-15T10:16:06.135Z,102050
2023-03-15T10:21:07.681Z,102050
2023-03-15T10:26:06.101Z,102060
2023-03-15T10:31:06.095Z,102050
2023-03-15T10:36:11.395Z,102060
2023-03-15T10:41:06.072Z,102070
2023-03-15T10:46:06.167Z,102080
2023-03-15T10:51:06.073Z,102070
2023-03-15T10:56:06.118Z,102070
2023-03-15T11:01:06.084Z,102080
2023-03-15T11:06:06.091Z,102080
2023-03-15T11:11:06.090Z,102080
2023-03-15T11:16:06.144Z,102090
2023-03-15T11:21:06.091Z,102090
2023-03-15T11:26:06.128Z,102100
2023-03-15T11:31:06.146Z,102100
2023-03-15T11:36:06.133Z,102110
2023-03-15T11:41:06.103Z,102100
2023-03-15T11:46:06.187Z,102100
2023-03-15T11:51:06.119Z,102100
2023-03-15T11:56:06.179Z,102100
2023-03-15T12:01:06.123Z,102100
2023-03-15T12:06:06.131Z,102100
2023-03-15T12:11:06.129Z,102090
2023-03-15T12:16:06.127Z,102080
2023-03-15T12:21:06.128Z,102090
2023-03-15T12:26:06.173Z,102100
2023-03-15T12:31:06.274Z,102090
2023-03-15T12:36:06.205Z,102100
2023-03-15T12:41:06.134Z,102100
2023-03-15T12:46:06.174Z,102100
2023-03-15T12:51:06.152Z,102100
2023-03-15T12:56:08.648Z,102090
2023-03-15T13:01:06.234Z,102100
2023-03-15T13:06:06.161Z,102100
2023-03-15T13:11:06.156Z,102100
2023-03-15T13:16:06.259Z,102100
2023-03-15T13:21:06.166Z,102090
2023-03-15T13:26:06.198Z,102090
2023-03-15T13:31:06.275Z,102090
2023-03-15T13:36:06.174Z,102080
2023-03-15T13:41:06.203Z,102080
2023-03-15T13:46:06.243Z,102090
2023-03-15T13:51:06.176Z,102090
2023-03-15T13:56:06.212Z,102090
2023-03-15T14:01:06.189Z,102080
2023-03-15T14:06:06.197Z,102090
2023-03-15T14:11:06.196Z,102090
2023-03-15T14:16:06.246Z,102090
2023-03-15T14:21:06.211Z,102100
2023-03-15T14:26:06.395Z,102100
2023-03-15T14:31:06.279Z,102100
2023-03-15T14:36:07.592Z,102110
2023-03-15T14:41:06.217Z,102110
2023-03-15T14:46:07.276Z,102110
2023-03-15T14:51:06.221Z,102110
2023-03-15T14:56:06.260Z,102110
2023-03-15T15:01:06.263Z,102100
2023-03-15T15:06:06.228Z,102100
2023-03-15T15:11:06.239Z,102100
2023-03-15T15:16:06.325Z,102100
2023-03-15T15:21:06.242Z,102100
2023-03-15T15:26:06.274Z,102100
2023-03-15T15:31:06.295Z,102100
2023-03-15T15:36:06.268Z,102100
2023-03-15T15:41:06.261Z,102090
2023-03-15T15:46:06.291Z,102080
2023-03-15T15:51:06.261Z,102090
2023-03-15T15:56:06.296Z,102090
2023-03-15T16:01:06.300Z,102090
2023-03-15T16:06:06.257Z,102090
2023-03-15T16:11:06.259Z,102080
2023-03-15T16:16:06.359Z,102080
2023-03-15T16:21:06.273Z,102090
2023-03-15T16:26:06.313Z,102080
2023-03-15T16:31:06.299Z,102080
2023-03-15T16:36:06.322Z,102080
2023-03-15T16:41:06.280Z,102090
2023-03-15T16:46:06.342Z,102090
2023-03-15T16:51:06.293Z,102100
2023-03-15T16:56:06.307Z,102100
2023-03-15T17:01:06.288Z,102100
2023-03-15T17:06:06.289Z,102100
2023-03-15T17:11:06.300Z,102100
2023-03-15T17:16:06.412Z,102110
2023-03-15T17:21:06.311Z,102110
2023-03-15T17:26:06.345Z,102110
2023-03-15T17:31:24.012Z,102110
2023-03-15T17:36:06.347Z,102110
2023-03-15T17:41:06.388Z,102110
2023-03-15T17:46:06.316Z,102110
2023-03-15T17:51:06.312Z,102110
2023-03-15T17:56:06.347Z,102110
2023-03-15T18:01:06.378Z,102120
2023-03-15T18:06:06.333Z,102120
2023-03-15T18:11:06.327Z,102140
2023-03-15T18:16:06.373Z,102150
2023-03-15T18:21:06.333Z,102150
2023-03-15T18:26:06.379Z,102160
2023-03-15T18:31:06.342Z,102170
2023-03-15T18:36:06.364Z,102170
2023-03-15T18:41:06.349Z,102170
2023-03-15T18:46:06.397Z,102180
2023-03-15T18:51:06.346Z,102180
2023-03-15T18:56:06.385Z,102180
2023-03-15T19:01:06.375Z,102180
2023-03-15T19:06:06.357Z,102170
2023-03-15T19:11:06.366Z,102180
2023-03-15T19:16:06.378Z,102160
2023-03-15T19:21:06.377Z,102160
2023-03-15T19:26:06.415Z,102150
2023-03-15T19:31:06.404Z,102150
2023-03-15T19:36:06.469Z,102150
2023-03-15T19:41:06.391Z,102160
2023-03-15T19:46:06.404Z,102170
2023-03-15T19:51:06.386Z,102160
2023-03-15T19:56:06.428Z,102170
2023-03-15T20:01:06.391Z,102170
2023-03-15T20:06:06.392Z,102160
2023-03-15T20:11:06.404Z,102160
2023-03-15T20:16:06.415Z,102160
2023-03-15T20:21:06.414Z,102160
2023-03-15T20:26:06.460Z,102160
2023-03-15T20:31:06.461Z,102160
2023-03-15T20:36:06.561Z,102150
2023-03-15T20:41:06.422Z,102160
2023-03-15T20:46:06.424Z,102170
2023-03-15T20:51:06.422Z,102170
2023-03-15T20:56:06.554Z,102170
2023-03-15T21:01:06.515Z,102170
2023-03-15T21:06:06.429Z,102160
2023-03-15T21:11:06.441Z,102160
2023-03-15T21:16:06.493Z,102160
2023-03-15T21:21:06.438Z,102150
2023-03-15T21:26:06.454Z,102150
2023-03-15T21:31:06.439Z,102140
2023-03-15T21:36:06.433Z,102140
2023-03-15T21:41:06.435Z,102140
2023-03-15T21:46:06.529Z,102130
2023-03-15T21:51:06.447Z,102120
2023-03-15T21:56:06.484Z,102120
2023-03-15T22:01:06.494Z,102120
2023-03-15T22:06:06.459Z,102120
2023-03-15T22:11:06.451Z,102110
2023-03-15T22:16:06.451Z,102110
2023-03-15T22:21:06.459Z,102110
2023-03-15T22:26:06.482Z,102110
2023-03-15T22:31:06.496Z,102110
2023-03-15T22:36:06.526Z,102110
2023-03-15T22:41:06.475Z,102110
2023-03-15T22:46:06.520Z,102100
2023-03-15T22:51:06.475Z,102100
2023-03-15T22:56:06.528Z,102100
2023-03-15T23:01:06.636Z,102100
2023-03-15T23:06:06.504Z,102100
2023-03-15T23:11:06.495Z,102090
2023-03-15T23:16:06.558Z,102100
2023-03-15T23:21:06.499Z,102090
2023-03-15T23:26:06.566Z,102090
2023-03-15T23:31:06.564Z,102090
2023-03-15T23:36:06.521Z,102080
2023-03-15T23:41:06.517Z,102070
2023-03-15T23:46:06.540Z,102080
2023-03-15T23:51:06.520Z,102070
2023-03-15T23:56:06.561Z,102060
